createdAt,value
2018-04-07T00:02:20.319Z,6.50
2018-04-07T00:04:47.953Z,6.50
2018-04-07T00:07:16.247Z,6.40
2018-04-07T00:09:43.724Z,6.40
2018-04-07T00:12:11.965Z,6.60
2018-04-07T00:14:39.458Z,6.60
2018-04-07T00:17:07.739Z,6.70
2018-04-07T00:19:36.594Z,6.60
2018-04-07T00:22:04.110Z,6.60
2018-04-07T00:24:31.618Z,6.70
2018-04-07T00:26:59.124Z,6.50
2018-04-07T00:29:27.383Z,6.80
2018-04-07T00:31:55.619Z,6.70
2018-04-07T00:34:23.176Z,6.70
2018-04-07T00:36:50.680Z,6.70
2018-04-07T00:39:18.183Z,6.80
2018-04-07T00:41:45.646Z,6.70
2018-04-07T00:44:13.152Z,6.80
2018-04-07T00:46:40.657Z,6.80
2018-04-07T00:49:08.148Z,6.80
2018-04-07T00:51:35.720Z,6.80
2018-04-07T00:54:04.092Z,6.90
2018-04-07T00:56:31.584Z,6.80
2018-04-07T00:58:59.070Z,7.20
2018-04-07T01:01:26.573Z,7.00
2018-04-07T01:03:54.127Z,7.10
2018-04-07T01:06:21.662Z,7.20
2018-04-07T01:08:49.202Z,7.10
2018-04-07T01:11:16.804Z,7.10
2018-04-07T01:13:44.328Z,7.20
2018-04-07T01:16:11.829Z,7.20
2018-04-07T01:18:39.318Z,7.20
2018-04-07T01:21:07.626Z,6.90
2018-04-07T01:23:35.076Z,6.90
2018-04-07T01:26:02.582Z,6.90
2018-04-07T01:28:30.044Z,6.90
2018-04-07T01:30:58.313Z,6.80
2018-04-07T01:33:26.653Z,6.90
2018-04-07T01:35:54.102Z,6.80
2018-04-07T01:38:23.267Z,7.00
2018-04-07T01:40:51.545Z,7.10
2018-04-07T01:43:19.788Z,7.00
2018-04-07T01:45:47.282Z,7.00
2018-04-07T01:48:15.535Z,7.00
2018-04-07T01:50:43.048Z,7.00
2018-04-07T01:53:10.532Z,7.10
2018-04-07T01:55:38.009Z,7.00
2018-04-07T01:58:05.489Z,7.00
2018-04-07T02:00:33.758Z,6.90
2018-04-07T02:03:02.017Z,6.80
2018-04-07T02:05:29.586Z,6.80
2018-04-07T02:07:57.120Z,6.80
2018-04-07T02:10:24.600Z,6.70
2018-04-07T02:12:52.121Z,6.70
2018-04-07T02:15:19.611Z,6.60
2018-04-07T02:17:47.126Z,6.50
2018-04-07T02:20:14.631Z,6.40
2018-04-07T02:22:42.904Z,6.30
2018-04-07T02:25:10.389Z,6.30
2018-04-07T02:27:38.661Z,6.10
2018-04-07T02:30:06.182Z,6.10
2018-04-07T02:32:33.676Z,6.20
2018-04-07T02:35:01.938Z,6.10
2018-04-07T02:37:29.448Z,6.10
2018-04-07T02:39:56.966Z,6.10
2018-04-07T02:42:25.237Z,6.00
2018-04-07T02:44:53.505Z,5.90
2018-04-07T02:47:20.963Z,5.90
2018-04-07T02:49:48.493Z,5.90
2018-04-07T02:52:15.989Z,5.80
2018-04-07T02:54:44.884Z,5.70
2018-04-07T02:57:13.142Z,5.80
2018-04-07T02:59:40.636Z,5.80
2018-04-07T03:02:08.899Z,5.70
2018-04-07T03:04:37.144Z,5.60
2018-04-07T03:07:04.623Z,5.50
2018-04-07T03:09:32.203Z,5.50
2018-04-07T03:12:00.524Z,5.60
2018-04-07T03:14:28.024Z,5.60
2018-04-07T03:16:55.530Z,5.70
2018-04-07T03:19:23.036Z,5.60
2018-04-07T03:21:50.543Z,5.60
2018-04-07T03:24:18.042Z,5.60
2018-04-07T03:26:45.519Z,5.60
2018-04-07T03:29:13.772Z,5.70
2018-04-07T03:31:41.292Z,5.70
2018-04-07T03:34:08.793Z,5.60
2018-04-07T03:36:36.304Z,5.70
2018-04-07T03:39:03.817Z,5.70
2018-04-07T03:41:31.360Z,5.90
2018-04-07T03:43:58.849Z,5.70
2018-04-07T03:46:27.138Z,5.50
2018-04-07T03:48:54.678Z,5.40
2018-04-07T03:51:22.912Z,5.40
2018-04-07T03:53:50.384Z,5.40
2018-04-07T03:56:17.841Z,5.60
2018-04-07T03:58:45.333Z,5.50
2018-04-07T04:01:12.794Z,5.50
2018-04-07T04:03:41.035Z,5.40
2018-04-07T04:06:08.521Z,5.40
2018-04-07T04:08:36.761Z,5.20
2018-04-07T04:11:04.975Z,5.20
2018-04-07T04:13:32.477Z,5.20
2018-04-07T04:15:59.970Z,5.20
2018-04-07T04:18:27.494Z,5.10
2018-04-07T04:20:54.993Z,5.00
2018-04-07T04:23:22.469Z,5.00
2018-04-07T04:25:50.785Z,4.80
2018-04-07T04:28:18.266Z,4.80
2018-04-07T04:30:45.760Z,4.70
2018-04-07T04:33:14.055Z,4.80
2018-04-07T04:35:42.367Z,4.80
2018-04-07T04:38:09.830Z,4.80
2018-04-07T04:40:37.330Z,4.80
2018-04-07T04:43:04.805Z,4.80
2018-04-07T04:45:33.056Z,4.70
2018-04-07T04:48:00.565Z,4.70
2018-04-07T04:50:28.048Z,4.80
2018-04-07T04:52:55.538Z,4.80
2018-04-07T04:55:23.057Z,4.60
2018-04-07T04:57:50.656Z,4.70
2018-04-07T05:00:18.144Z,4.70
2018-04-07T05:02:45.660Z,4.90
2018-04-07T05:05:13.164Z,5.00
2018-04-07T05:07:40.694Z,5.00
2018-04-07T05:10:08.266Z,5.00
2018-04-07T05:12:36.523Z,5.10
2018-04-07T05:15:04.017Z,5.10
2018-04-07T05:17:31.516Z,5.20
2018-04-07T05:19:59.022Z,5.20
2018-04-07T05:22:27.290Z,5.30
2018-04-07T05:24:55.523Z,5.40
2018-04-07T05:27:22.998Z,5.30
2018-04-07T05:29:50.469Z,5.50
2018-04-07T05:32:17.985Z,5.50
2018-04-07T05:34:45.484Z,5.60
2018-04-07T05:37:12.952Z,5.70
2018-04-07T05:39:41.232Z,5.80
2018-04-07T05:42:09.516Z,5.80
2018-04-07T05:44:37.773Z,6.00
2018-04-07T05:47:06.024Z,6.00
2018-04-07T05:49:33.536Z,6.10
2018-04-07T05:52:01.815Z,6.40
2018-04-07T05:54:29.309Z,6.30
2018-04-07T05:56:56.830Z,7.40
2018-04-07T05:59:24.341Z,9.50
2018-04-07T06:01:51.850Z,10.20
2018-04-07T06:04:19.344Z,10.60
2018-04-07T06:06:46.862Z,11.40
2018-04-07T06:09:14.367Z,12.40
2018-04-07T06:11:41.865Z,13.30
2018-04-07T06:14:10.188Z,14.70
2018-04-07T06:16:37.693Z,14.70
2018-04-07T06:19:05.229Z,15.40
2018-04-07T06:21:32.736Z,14.90
2018-04-07T06:24:00.234Z,16.30
2018-04-07T06:26:27.716Z,17.20
2018-04-07T06:28:55.188Z,16.40
2018-04-07T06:31:23.566Z,17.00
2018-04-07T06:33:51.073Z,17.00
2018-04-07T06:36:18.568Z,16.30
2018-04-07T06:38:46.033Z,15.90
2018-04-07T06:41:13.625Z,14.40
2018-04-07T06:43:41.890Z,14.90
2018-04-07T06:46:10.151Z,16.10
2018-04-07T06:48:37.634Z,16.10
2018-04-07T06:51:05.185Z,16.40
2018-04-07T06:53:33.447Z,17.40
2018-04-07T06:56:01.747Z,15.40
2018-04-07T06:58:30.001Z,15.10
2018-04-07T07:00:57.460Z,15.20
2018-04-07T07:03:24.953Z,16.40
2018-04-07T07:05:52.428Z,15.90
2018-04-07T07:08:19.958Z,15.30
2018-04-07T07:10:48.810Z,13.00
2018-04-07T07:13:16.303Z,12.90
2018-04-07T07:15:43.788Z,12.70
2018-04-07T07:18:11.320Z,12.20
2018-04-07T07:20:39.554Z,11.80
2018-04-07T07:23:07.217Z,11.80
2018-04-07T07:25:34.713Z,11.90
2018-04-07T07:28:02.974Z,11.90
2018-04-07T07:30:30.671Z,11.80
2018-04-07T07:32:58.265Z,12.00
2018-04-07T07:35:26.422Z,11.80
2018-04-07T07:37:53.907Z,11.90
2018-04-07T07:40:21.404Z,12.10
2018-04-07T07:42:49.716Z,12.50
2018-04-07T07:45:17.704Z,12.50
2018-04-07T07:47:45.379Z,12.60
2018-04-07T07:50:12.953Z,12.60
2018-04-07T07:52:40.618Z,12.60
2018-04-07T07:55:08.371Z,12.70
2018-04-07T07:57:35.921Z,12.70
2018-04-07T08:00:03.415Z,12.80
2018-04-07T08:02:32.153Z,13.00
2018-04-07T08:04:59.747Z,13.00
2018-04-07T08:07:27.235Z,13.20
2018-04-07T08:09:54.784Z,13.40
2018-04-07T08:12:23.059Z,13.40
2018-04-07T08:14:51.323Z,13.40
2018-04-07T08:17:18.833Z,13.30
2018-04-07T08:19:46.361Z,13.50
2018-04-07T08:22:14.634Z,13.60
2018-04-07T08:24:42.960Z,13.80
2018-04-07T08:27:10.491Z,13.70
2018-04-07T08:29:38.004Z,13.80
2018-04-07T08:32:06.345Z,13.90
2018-04-07T08:34:34.550Z,14.00
2018-04-07T08:37:02.051Z,14.00
2018-04-07T08:39:29.559Z,14.20
2018-04-07T08:41:57.024Z,14.30
2018-04-07T08:44:24.560Z,14.20
2018-04-07T08:46:52.077Z,14.20
2018-04-07T08:49:20.394Z,14.40
2018-04-07T08:51:47.988Z,14.40
2018-04-07T08:54:15.478Z,14.50
2018-04-07T08:56:42.983Z,14.60
2018-04-07T08:59:10.505Z,14.80
2018-04-07T09:01:38.004Z,14.60
2018-04-07T09:04:05.480Z,14.80
2018-04-07T09:06:32.968Z,14.90
2018-04-07T09:09:00.485Z,15.00
2018-04-07T09:11:28.040Z,15.30
2018-04-07T09:13:56.266Z,15.30
2018-04-07T09:16:23.788Z,15.30
2018-04-07T09:18:51.284Z,15.40
2018-04-07T09:21:19.543Z,15.60
2018-04-07T09:23:47.052Z,15.60
2018-04-07T09:26:14.517Z,15.60
2018-04-07T09:28:42.118Z,15.60
2018-04-07T09:31:15.376Z,15.90
2018-04-07T09:33:42.871Z,16.00
2018-04-07T09:36:11.161Z,16.00
2018-04-07T09:38:39.436Z,16.10
2018-04-07T09:41:07.714Z,16.20
2018-04-07T09:43:36.022Z,16.10
2018-04-07T09:46:03.524Z,16.00
2018-04-07T09:48:31.020Z,16.10
2018-04-07T09:50:58.692Z,16.10
2018-04-07T09:53:26.137Z,16.40
2018-04-07T09:55:53.737Z,16.40
2018-04-07T09:58:21.336Z,16.50
2018-04-07T10:00:48.897Z,16.60
2018-04-07T10:03:22.183Z,16.70
2018-04-07T10:05:49.808Z,16.90
2018-04-07T10:08:17.307Z,17.00
2018-04-07T10:10:46.346Z,17.00
2018-04-07T10:13:13.889Z,17.00
2018-04-07T10:15:42.157Z,17.30
2018-04-07T10:18:10.389Z,17.10
2018-04-07T10:20:37.885Z,17.10
2018-04-07T10:23:06.136Z,17.70
2018-04-07T10:25:33.666Z,17.60
2018-04-07T10:28:01.144Z,17.70
2018-04-07T10:30:28.642Z,17.70
2018-04-07T10:32:56.871Z,17.90
2018-04-07T10:35:24.393Z,17.90
2018-04-07T10:37:51.905Z,18.10
2018-04-07T10:40:19.420Z,18.30
2018-04-07T10:42:46.896Z,18.30
2018-04-07T10:45:14.457Z,18.40
2018-04-07T10:47:42.031Z,18.50
2018-04-07T10:50:09.544Z,18.50
2018-04-07T10:52:37.061Z,18.50
2018-04-07T10:55:04.514Z,18.70
2018-04-07T10:57:32.020Z,18.70
2018-04-07T10:59:59.531Z,18.80
2018-04-07T11:02:27.061Z,19.00
2018-04-07T11:04:54.608Z,18.90
2018-04-07T11:07:22.858Z,18.70
2018-04-07T11:09:51.094Z,18.90
2018-04-07T11:12:18.680Z,19.00
2018-04-07T11:14:46.922Z,19.40
2018-04-07T11:17:14.463Z,19.40
2018-04-07T11:19:42.618Z,19.40
2018-04-07T11:22:10.133Z,19.20
2018-04-07T11:24:37.654Z,19.20
2018-04-07T11:27:05.157Z,19.30
2018-04-07T11:29:32.651Z,19.50
2018-04-07T11:32:00.163Z,19.70
2018-04-07T11:34:27.685Z,19.80
2018-04-07T11:36:55.129Z,19.70
2018-04-07T11:39:22.696Z,20.10
2018-04-07T11:41:50.143Z,20.00
2018-04-07T11:44:17.716Z,20.10
2018-04-07T11:46:45.213Z,20.00
2018-04-07T11:49:12.813Z,20.00
2018-04-07T11:51:41.049Z,20.10
2018-04-07T11:54:08.558Z,20.10
2018-04-07T11:56:36.058Z,20.30
2018-04-07T11:59:03.570Z,20.50
2018-04-07T12:01:31.028Z,20.40
2018-04-07T12:03:58.596Z,20.40
2018-04-07T12:06:26.090Z,20.30
2018-04-07T12:08:53.621Z,20.40
2018-04-07T12:11:21.117Z,20.60
2018-04-07T12:13:48.626Z,20.70
2018-04-07T12:16:16.365Z,20.90
2018-04-07T12:18:43.849Z,20.70
2018-04-07T12:21:11.463Z,20.80
2018-04-07T12:23:39.087Z,20.80
2018-04-07T12:26:06.600Z,21.00
2018-04-07T12:28:34.080Z,21.10
2018-04-07T12:31:01.616Z,20.80
2018-04-07T12:33:29.105Z,20.80
2018-04-07T12:35:56.600Z,20.90
2018-04-07T12:38:24.116Z,20.90
2018-04-07T12:40:51.611Z,20.80
2018-04-07T12:43:19.120Z,20.90
2018-04-07T12:45:46.726Z,21.10
2018-04-07T12:48:14.265Z,21.10
2018-04-07T12:50:41.809Z,21.20
2018-04-07T12:53:10.602Z,21.30
2018-04-07T12:55:38.888Z,21.30
2018-04-07T12:58:06.376Z,21.30
2018-04-07T13:00:33.891Z,21.30
2018-04-07T13:03:02.208Z,21.60
2018-04-07T13:05:29.716Z,21.60
2018-04-07T13:07:57.262Z,21.50
2018-04-07T13:10:24.747Z,21.40
2018-04-07T13:12:53.062Z,21.50
2018-04-07T13:15:20.688Z,21.40
2018-04-07T13:17:48.194Z,22.00
2018-04-07T13:20:15.680Z,22.10
2018-04-07T13:22:43.188Z,22.30
2018-04-07T13:25:10.685Z,22.20
2018-04-07T13:27:38.248Z,22.20
2018-04-07T13:30:06.130Z,21.90
2018-04-07T13:32:33.610Z,21.80
2018-04-07T13:35:01.994Z,22.00
2018-04-07T13:37:29.481Z,22.00
2018-04-07T13:39:57.047Z,22.00
2018-04-07T13:42:24.672Z,22.00
2018-04-07T13:44:52.276Z,22.10
2018-04-07T13:47:19.777Z,22.10
2018-04-07T13:49:48.045Z,22.10
2018-04-07T13:52:16.344Z,22.10
2018-04-07T13:54:43.839Z,22.10
2018-04-07T13:57:11.356Z,22.10
2018-04-07T13:59:39.612Z,22.30
2018-04-07T14:02:07.084Z,22.30
2018-04-07T14:04:35.332Z,22.20
2018-04-07T14:07:02.919Z,22.20
2018-04-07T14:09:31.259Z,22.10
2018-04-07T14:11:58.934Z,22.10
2018-04-07T14:14:27.216Z,22.20
2018-04-07T14:16:54.763Z,22.20
2018-04-07T14:19:22.346Z,22.30
2018-04-07T14:21:49.903Z,22.30
2018-04-07T14:24:17.433Z,22.20
2018-04-07T14:26:45.070Z,22.20
2018-04-07T14:29:12.621Z,22.30
2018-04-07T14:31:40.153Z,22.10
2018-04-07T14:34:07.737Z,22.30
2018-04-07T14:36:35.260Z,22.40
2018-04-07T14:39:05.914Z,22.40
2018-04-07T14:41:34.181Z,22.40
2018-04-07T14:44:01.704Z,22.40
2018-04-07T14:46:29.313Z,22.40
2018-04-07T14:48:58.459Z,22.50
2018-04-07T14:51:27.756Z,22.40
2018-04-07T14:53:55.258Z,22.40
2018-04-07T14:56:23.598Z,22.40
2018-04-07T14:58:51.143Z,22.30
2018-04-07T15:01:18.724Z,22.20
2018-04-07T15:03:46.305Z,22.40
2018-04-07T15:06:13.800Z,22.30
2018-04-07T15:08:41.346Z,22.10
2018-04-07T15:11:09.656Z,22.30
2018-04-07T15:13:37.133Z,22.20
2018-04-07T15:16:04.698Z,22.30
2018-04-07T15:18:32.208Z,22.30
2018-04-07T15:20:59.664Z,22.30
2018-04-07T15:23:27.224Z,22.20
2018-04-07T15:25:55.473Z,22.10
2018-04-07T15:28:22.969Z,22.10
2018-04-07T15:30:50.504Z,22.20
2018-04-07T15:33:18.844Z,22.00
2018-04-07T15:35:46.417Z,22.00
2018-04-07T15:38:13.905Z,22.10
2018-04-07T15:40:42.167Z,22.10
2018-04-07T15:43:09.704Z,22.10
2018-04-07T15:45:37.251Z,22.10
2018-04-07T15:48:05.578Z,21.90
2018-04-07T15:50:33.596Z,21.90
2018-04-07T15:53:01.168Z,21.90
2018-04-07T15:55:28.821Z,22.00
2018-04-07T15:57:56.292Z,22.00
2018-04-07T16:00:23.788Z,22.10
2018-04-07T16:02:52.267Z,22.00
2018-04-07T16:05:20.586Z,22.10
2018-04-07T16:07:48.840Z,21.90
2018-04-07T16:10:16.422Z,21.90
2018-04-07T16:12:43.934Z,21.80
2018-04-07T16:15:11.452Z,21.80
2018-04-07T16:17:38.945Z,21.80
2018-04-07T16:20:06.448Z,21.80
2018-04-07T16:22:33.945Z,21.70
2018-04-07T16:25:01.486Z,21.80
2018-04-07T16:27:28.981Z,21.70
2018-04-07T16:29:56.480Z,21.80
2018-04-07T16:32:23.995Z,21.70
2018-04-07T16:34:51.616Z,21.70
2018-04-07T16:37:19.081Z,21.60
2018-04-07T16:39:46.606Z,21.60
2018-04-07T16:42:14.107Z,21.60
2018-04-07T16:44:41.626Z,21.60
2018-04-07T16:47:09.136Z,21.60
2018-04-07T16:49:36.685Z,21.50
2018-04-07T16:52:04.192Z,21.30
2018-04-07T16:54:31.695Z,21.20
2018-04-07T16:56:59.939Z,21.20
2018-04-07T16:59:27.442Z,21.20
2018-04-07T17:01:54.919Z,21.30
2018-04-07T17:04:22.387Z,21.20
2018-04-07T17:06:50.715Z,21.20
2018-04-07T17:09:18.209Z,21.10
2018-04-07T17:11:45.719Z,21.20
2018-04-07T17:14:13.235Z,21.10
2018-04-07T17:16:41.513Z,20.90
2018-04-07T17:19:09.004Z,20.80
2018-04-07T17:21:36.569Z,20.60
2018-04-07T17:24:04.171Z,20.60
2018-04-07T17:26:31.680Z,20.40
2018-04-07T17:28:59.224Z,20.20
2018-04-07T17:31:27.471Z,20.30
2018-04-07T17:33:54.954Z,20.20
2018-04-07T17:36:23.260Z,20.10
2018-04-07T17:38:50.740Z,20.10
2018-04-07T17:41:18.233Z,19.90
2018-04-07T17:43:45.722Z,20.00
2018-04-07T17:46:13.204Z,20.00
2018-04-07T17:48:40.701Z,19.90
2018-04-07T17:51:10.635Z,19.70
2018-04-07T17:53:38.117Z,19.70
2018-04-07T17:56:05.602Z,19.30
2018-04-07T17:58:33.067Z,19.10
2018-04-07T18:01:00.672Z,19.40
2018-04-07T18:03:28.973Z,19.20
2018-04-07T18:05:56.487Z,19.20
2018-04-07T18:08:23.980Z,19.10
2018-04-07T18:10:51.468Z,18.90
2018-04-07T18:13:19.174Z,18.80
2018-04-07T18:15:46.719Z,18.60
2018-04-07T18:18:14.218Z,18.60
2018-04-07T18:20:42.472Z,18.20
2018-04-07T18:23:10.018Z,18.10
2018-04-07T18:25:37.561Z,18.10
2018-04-07T18:28:05.062Z,18.10
2018-04-07T18:30:33.331Z,18.10
2018-04-07T18:33:01.607Z,18.00
2018-04-07T18:35:29.121Z,18.00
2018-04-07T18:37:56.635Z,18.00
2018-04-07T18:40:24.960Z,18.30
2018-04-07T18:42:52.464Z,18.30
2018-04-07T18:45:19.979Z,18.10
2018-04-07T18:47:47.476Z,18.00
2018-04-07T18:50:15.753Z,17.80
2018-04-07T18:52:43.287Z,17.80
2018-04-07T18:55:11.584Z,17.40
2018-04-07T18:57:39.069Z,17.40
2018-04-07T19:00:06.588Z,17.60
2018-04-07T19:02:34.141Z,17.50
2018-04-07T19:05:01.648Z,17.70
2018-04-07T19:07:30.075Z,17.90
2018-04-07T19:09:59.132Z,17.90
2018-04-07T19:12:26.732Z,17.70
2018-04-07T19:14:54.366Z,17.80
2018-04-07T19:17:21.887Z,17.80
2018-04-07T19:19:50.169Z,17.60
2018-04-07T19:22:18.452Z,17.50
2018-04-07T19:24:46.726Z,17.60
2018-04-07T19:27:15.048Z,17.70
2018-04-07T19:29:42.564Z,17.70
2018-04-07T19:32:10.842Z,17.60
2018-04-07T19:34:38.383Z,17.60
2018-04-07T19:37:05.911Z,17.70
2018-04-07T19:39:33.397Z,17.90
2018-04-07T19:42:00.961Z,17.90
2018-04-07T19:44:28.520Z,17.90
2018-04-07T19:46:56.006Z,18.00
2018-04-07T19:49:23.516Z,17.90
2018-04-07T19:51:51.398Z,17.90
2018-04-07T19:54:18.960Z,18.10
2018-04-07T19:56:46.464Z,18.00
2018-04-07T19:59:13.963Z,18.00
2018-04-07T20:01:41.517Z,17.90
2018-04-07T20:04:09.333Z,18.20
2018-04-07T20:06:37.555Z,18.00
2018-04-07T20:09:05.920Z,18.00
2018-04-07T20:11:33.413Z,17.90
2018-04-07T20:14:00.929Z,18.10
2018-04-07T20:16:28.418Z,18.20
2018-04-07T20:18:55.894Z,18.10
2018-04-07T20:21:23.475Z,18.10
2018-04-07T20:23:51.721Z,17.90
2018-04-07T20:26:19.368Z,17.90
2018-04-07T20:28:46.877Z,17.70
2018-04-07T20:31:15.116Z,17.70
2018-04-07T20:33:42.866Z,17.70
2018-04-07T20:36:10.356Z,17.70
2018-04-07T20:38:37.888Z,17.50
2018-04-07T20:41:05.442Z,17.60
2018-04-07T20:43:32.916Z,17.40
2018-04-07T20:46:00.535Z,17.40
2018-04-07T20:48:28.028Z,17.20
2018-04-07T20:50:55.529Z,17.20
2018-04-07T20:53:23.012Z,17.10
2018-04-07T20:55:50.512Z,17.00
2018-04-07T20:58:18.057Z,16.80
2018-04-07T21:00:45.557Z,16.70
2018-04-07T21:03:13.062Z,16.60
2018-04-07T21:05:40.579Z,16.40
2018-04-07T21:08:08.840Z,16.30
2018-04-07T21:10:36.382Z,16.30
2018-04-07T21:13:03.902Z,16.30
2018-04-07T21:15:31.400Z,16.20
2018-04-07T21:17:58.977Z,16.10
2018-04-07T21:20:26.537Z,15.90
2018-04-07T21:22:54.075Z,15.70
2018-04-07T21:25:21.580Z,15.50
2018-04-07T21:27:49.089Z,15.30
2018-04-07T21:30:16.725Z,15.20
2018-04-07T21:32:44.996Z,14.90
2018-04-07T21:35:12.484Z,14.90
2018-04-07T21:37:39.969Z,14.70
2018-04-07T21:40:08.233Z,14.80
2018-04-07T21:42:35.727Z,14.70
2018-04-07T21:45:03.244Z,14.70
2018-04-07T21:47:30.728Z,14.60
2018-04-07T21:49:59.006Z,14.50
2018-04-07T21:52:27.275Z,14.40
2018-04-07T21:54:54.777Z,14.40
2018-04-07T21:57:22.358Z,14.30
2018-04-07T21:59:49.826Z,14.10
2018-04-07T22:02:17.327Z,14.10
2018-04-07T22:04:45.589Z,13.80
2018-04-07T22:07:13.122Z,13.80
2018-04-07T22:09:40.675Z,13.80
2018-04-07T22:12:08.188Z,13.70
2018-04-07T22:14:35.780Z,13.70
2018-04-07T22:17:03.296Z,13.60
2018-04-07T22:19:32.344Z,13.30
2018-04-07T22:22:00.725Z,13.40
2018-04-07T22:24:28.366Z,13.20
2018-04-07T22:26:55.849Z,13.20
2018-04-07T22:29:23.332Z,13.10
2018-04-07T22:31:50.841Z,13.10
2018-04-07T22:34:18.450Z,13.00
2018-04-07T22:36:45.928Z,13.00
2018-04-07T22:39:14.157Z,13.00
2018-04-07T22:41:41.666Z,13.00
2018-04-07T22:44:09.927Z,13.00
2018-04-07T22:46:38.185Z,12.90
2018-04-07T22:49:05.679Z,12.90
2018-04-07T22:51:34.002Z,12.80
2018-04-07T22:54:01.483Z,12.80
2018-04-07T22:56:28.976Z,12.70
2018-04-07T22:58:56.489Z,12.80
2018-04-07T23:01:23.998Z,12.70
2018-04-07T23:03:51.533Z,12.70
2018-04-07T23:06:19.037Z,12.60
2018-04-07T23:08:46.521Z,12.50
2018-04-07T23:11:14.004Z,12.60
2018-04-07T23:13:42.249Z,12.50
2018-04-07T23:16:09.755Z,12.50
2018-04-07T23:18:37.246Z,12.40
2018-04-07T23:21:04.754Z,12.40
2018-04-07T23:23:32.271Z,12.30
2018-04-07T23:25:59.780Z,12.30
2018-04-07T23:28:27.274Z,12.30
2018-04-07T23:30:54.765Z,12.20
2018-04-07T23:33:22.280Z,12.20
2018-04-07T23:35:50.766Z,12.10
2018-04-07T23:38:18.297Z,12.10
2018-04-07T23:40:45.764Z,12.10
2018-04-07T23:43:14.013Z,12.00
2018-04-07T23:45:41.735Z,12.00
2018-04-07T23:48:09.419Z,12.00
2018-04-07T23:50:37.215Z,11.90
2018-04-07T23:53:04.844Z,11.10
2018-04-07T23:55:32.356Z,11.80
2018-04-07T23:58:00.657Z,11.90
